createdAt,value
2022-10-05T00:02:28.834Z,41.93
2022-10-05T00:05:28.548Z,41.99
2022-10-05T00:08:20.959Z,41.83
2022-10-05T00:11:10.021Z,41.71
2022-10-05T00:13:59.677Z,41.88
2022-10-05T00:16:51.032Z,41.75
2022-10-05T00:19:40.277Z,41.69
2022-10-05T00:22:33.592Z,41.78
2022-10-05T00:25:23.588Z,41.85
2022-10-05T00:28:23.178Z,41.82
2022-10-05T00:31:17.069Z,42.01
2022-10-05T00:34:05.715Z,42.05
2022-10-05T00:36:55.414Z,41.86
2022-10-05T00:39:48.200Z,41.87
2022-10-05T00:42:42.098Z,41.79
2022-10-05T00:45:33.292Z,42.06
2022-10-05T00:48:27.140Z,41.96
2022-10-05T00:51:25.817Z,42.03
2022-10-05T00:54:25.082Z,42.03
2022-10-05T00:57:28.231Z,42.07
2022-10-05T01:00:19.437Z,42.02
2022-10-05T01:03:11.766Z,42.11
2022-10-05T01:06:11.139Z,41.93
2022-10-05T01:09:05.501Z,42.13
2022-10-05T01:11:59.261Z,42.24
2022-10-05T01:14:54.600Z,42.02
2022-10-05T01:17:48.533Z,42.16
2022-10-05T01:20:45.516Z,42.17
2022-10-05T01:24:21.471Z,41.98
2022-10-05T01:27:40.576Z,42.17
2022-10-05T01:30:30.421Z,42.45
2022-10-05T01:33:22.800Z,42.15
2022-10-05T01:36:14.893Z,42.31
2022-10-05T01:39:08.220Z,42.39
2022-10-05T01:42:06.865Z,42.28
2022-10-05T01:45:01.500Z,42.41
2022-10-05T01:47:52.100Z,42.42
2022-10-05T01:50:47.867Z,42.18
2022-10-05T01:53:46.108Z,42.28
2022-10-05T01:56:41.184Z,42.35
2022-10-05T01:59:38.438Z,42.19
2022-10-05T02:02:30.794Z,42.12
2022-10-05T02:05:22.328Z,42.18
2022-10-05T02:08:14.509Z,42.38
2022-10-05T02:11:05.345Z,42.13
2022-10-05T02:13:57.626Z,42.18
2022-10-05T02:16:48.840Z,42.57
2022-10-05T02:19:42.905Z,42.44
2022-10-05T02:22:34.129Z,42.44
2022-10-05T02:25:25.363Z,42.37
2022-10-05T02:28:17.320Z,42.31
2022-10-05T02:31:09.020Z,42.18
2022-10-05T02:34:21.749Z,42.26
2022-10-05T02:37:19.968Z,42.20
2022-10-05T02:40:20.472Z,42.32
2022-10-05T02:43:18.528Z,42.33
2022-10-05T02:46:13.738Z,42.67
2022-10-05T02:49:13.982Z,42.48
2022-10-05T02:52:07.817Z,42.36
2022-10-05T02:55:02.290Z,42.36
2022-10-05T02:57:54.953Z,42.55
2022-10-05T03:00:48.021Z,42.63
2022-10-05T03:03:40.281Z,42.58
2022-10-05T03:06:33.529Z,42.37
2022-10-05T03:09:24.262Z,42.31
2022-10-05T03:12:27.532Z,42.30
2022-10-05T03:15:24.862Z,42.41
2022-10-05T03:18:21.673Z,42.40
2022-10-05T03:21:20.834Z,42.52
2022-10-05T03:24:24.432Z,42.30
2022-10-05T03:27:24.019Z,42.34
2022-10-05T03:30:15.742Z,42.40
2022-10-05T03:33:09.348Z,42.59
2022-10-05T03:36:04.049Z,42.38
2022-10-05T03:38:58.822Z,42.56
2022-10-05T03:41:50.066Z,42.35
2022-10-05T03:44:46.964Z,42.52
2022-10-05T03:47:41.506Z,42.51
2022-10-05T03:50:40.647Z,42.63
2022-10-05T03:53:31.747Z,42.55
2022-10-05T03:56:31.297Z,42.50
2022-10-05T03:59:22.741Z,42.36
2022-10-05T04:02:26.857Z,42.53
2022-10-05T04:05:17.663Z,42.41
2022-10-05T04:08:10.273Z,42.41
2022-10-05T04:11:00.806Z,42.40
2022-10-05T04:13:52.761Z,42.31
2022-10-05T04:16:43.860Z,39.86
2022-10-05T04:19:38.252Z,36.61
2022-10-05T04:22:30.425Z,35.76
2022-10-05T04:25:20.446Z,35.60
2022-10-05T04:28:13.786Z,35.37
2022-10-05T04:31:04.414Z,36.86
2022-10-05T04:34:01.029Z,37.86
2022-10-05T04:36:59.308Z,38.65
2022-10-05T04:39:56.277Z,38.90
2022-10-05T04:42:49.826Z,39.24
2022-10-05T04:45:59.020Z,39.74
2022-10-05T04:49:07.747Z,40.07
2022-10-05T04:52:00.961Z,40.30
2022-10-05T04:54:58.914Z,40.39
2022-10-05T04:57:55.295Z,40.40
2022-10-05T05:00:51.693Z,40.47
2022-10-05T05:03:48.432Z,40.13
2022-10-05T05:06:40.307Z,40.53
2022-10-05T05:09:47.943Z,40.48
2022-10-05T05:12:44.426Z,40.58
2022-10-05T05:15:42.976Z,40.39
2022-10-05T05:18:50.409Z,40.67
2022-10-05T05:21:46.324Z,40.39
2022-10-05T05:24:43.517Z,40.52
2022-10-05T05:27:42.087Z,40.80
2022-10-05T05:30:38.449Z,40.79
2022-10-05T05:33:33.641Z,40.97
2022-10-05T05:36:36.691Z,40.92
2022-10-05T05:39:26.218Z,40.93
2022-10-05T05:42:24.876Z,40.97
2022-10-05T05:45:18.655Z,40.90
2022-10-05T05:48:15.377Z,41.16
2022-10-05T05:51:08.339Z,40.89
2022-10-05T05:54:02.082Z,41.10
2022-10-05T05:56:54.651Z,41.38
2022-10-05T05:59:53.941Z,41.04
2022-10-05T06:02:44.845Z,40.95
2022-10-05T06:05:35.703Z,41.21
2022-10-05T06:08:29.716Z,41.17
2022-10-05T06:11:21.352Z,41.06
2022-10-05T06:14:13.410Z,41.01
2022-10-05T06:17:06.787Z,41.18
2022-10-05T06:20:02.421Z,41.01
2022-10-05T06:22:53.947Z,40.97
2022-10-05T06:25:50.286Z,41.23
2022-10-05T06:28:38.889Z,41.12
2022-10-05T06:31:39.017Z,41.25
2022-10-05T06:34:49.605Z,41.18
2022-10-05T06:37:58.495Z,41.32
2022-10-05T06:40:58.693Z,41.34
2022-10-05T06:43:57.073Z,41.19
2022-10-05T06:46:55.341Z,41.65
2022-10-05T06:49:52.842Z,41.42
2022-10-05T06:52:52.088Z,41.52
2022-10-05T06:55:44.961Z,41.15
2022-10-05T06:58:44.287Z,41.27
2022-10-05T07:01:42.488Z,41.07
2022-10-05T07:04:52.719Z,41.44
2022-10-05T07:07:46.427Z,41.05
2022-10-05T07:10:41.549Z,41.33
2022-10-05T07:14:00.940Z,41.17
2022-10-05T07:17:01.409Z,41.41
2022-10-05T07:19:57.989Z,41.03
2022-10-05T07:22:56.395Z,41.04
2022-10-05T07:25:50.156Z,41.35
2022-10-05T07:28:46.213Z,41.28
2022-10-05T07:31:38.010Z,41.11
2022-10-05T07:34:37.857Z,41.07
2022-10-05T07:37:50.197Z,40.95
2022-10-05T07:40:42.368Z,41.06
2022-10-05T07:44:00.604Z,41.14
2022-10-05T07:46:51.855Z,41.35
2022-10-05T07:49:48.871Z,40.96
2022-10-05T07:52:41.656Z,41.04
2022-10-05T07:55:35.302Z,41.33
2022-10-05T07:58:29.451Z,40.95
2022-10-05T08:01:21.964Z,41.05
2022-10-05T08:04:15.380Z,40.95
2022-10-05T08:07:06.899Z,41.37
2022-10-05T08:10:01.189Z,41.03
2022-10-05T08:12:56.134Z,41.34
2022-10-05T08:15:48.354Z,41.30
2022-10-05T08:18:44.379Z,41.23
2022-10-05T08:21:35.692Z,41.21
2022-10-05T08:24:35.634Z,41.45
2022-10-05T08:27:28.192Z,41.54
2022-10-05T08:30:17.834Z,41.37
2022-10-05T08:33:10.905Z,41.24
2022-10-05T08:36:06.234Z,41.17
2022-10-05T08:38:56.909Z,41.57
2022-10-05T08:42:03.628Z,41.41
2022-10-05T08:45:17.856Z,41.22
2022-10-05T08:48:54.022Z,41.51
2022-10-05T08:52:09.075Z,41.47
2022-10-05T08:55:19.177Z,41.13
2022-10-05T08:58:35.669Z,41.41
2022-10-05T09:01:31.796Z,41.29
2022-10-05T09:04:43.872Z,41.40
2022-10-05T09:08:20.290Z,41.53
2022-10-05T09:11:13.412Z,41.27
2022-10-05T09:14:23.400Z,41.31
2022-10-05T09:17:28.355Z,41.49
2022-10-05T09:20:28.547Z,41.34
2022-10-05T09:23:31.378Z,41.34
2022-10-05T09:26:44.137Z,41.30
2022-10-05T09:30:07.234Z,41.29
2022-10-05T09:33:26.071Z,41.27
2022-10-05T09:36:47.742Z,41.35
2022-10-05T09:39:44.858Z,41.25
2022-10-05T09:42:52.418Z,41.43
2022-10-05T09:46:13.251Z,41.38
2022-10-05T09:49:22.824Z,41.23
2022-10-05T09:52:19.953Z,41.37
2022-10-05T09:55:32.607Z,41.43
2022-10-05T09:58:39.499Z,41.64
2022-10-05T10:01:51.714Z,41.46
2022-10-05T10:05:08.145Z,41.52
2022-10-05T10:08:04.765Z,41.29
2022-10-05T10:11:22.803Z,41.71
2022-10-05T10:14:49.608Z,41.58
2022-10-05T10:18:01.747Z,41.52
2022-10-05T10:21:12.947Z,41.58
2022-10-05T10:24:06.775Z,41.63
2022-10-05T10:27:13.576Z,41.59
2022-10-05T10:30:19.859Z,41.43
2022-10-05T10:33:32.596Z,41.44
2022-10-05T10:36:27.555Z,41.65
2022-10-05T10:39:23.118Z,41.71
2022-10-05T10:42:28.800Z,41.51
2022-10-05T10:45:22.846Z,41.39
2022-10-05T10:48:32.969Z,41.27
2022-10-05T10:51:57.642Z,41.56
2022-10-05T10:55:05.363Z,41.46
2022-10-05T10:58:15.754Z,41.34
2022-10-05T11:01:13.753Z,41.55
2022-10-05T11:04:24.946Z,41.42
2022-10-05T11:07:26.535Z,41.42
2022-10-05T11:10:31.079Z,41.53
2022-10-05T11:13:40.657Z,41.68
2022-10-05T11:17:02.706Z,41.64
2022-10-05T11:20:03.573Z,41.62
2022-10-05T11:23:11.654Z,41.74
2022-10-05T11:26:11.102Z,41.80
2022-10-05T11:29:31.319Z,41.65
2022-10-05T11:32:35.853Z,41.75
2022-10-05T11:35:34.441Z,41.79
2022-10-05T11:38:59.230Z,41.92
2022-10-05T11:42:26.430Z,41.89
2022-10-05T11:45:21.805Z,41.67
2022-10-05T11:48:26.340Z,41.64
2022-10-05T11:51:29.255Z,41.76
2022-10-05T11:54:26.506Z,41.88
2022-10-05T11:57:19.761Z,41.62
2022-10-05T12:00:15.048Z,41.93
2022-10-05T12:03:23.031Z,42.09
2022-10-05T12:06:23.733Z,41.80
2022-10-05T12:09:30.475Z,42.07
2022-10-05T12:12:22.869Z,42.05
2022-10-05T12:15:20.735Z,41.88
2022-10-05T12:18:14.586Z,42.12
2022-10-05T12:21:06.524Z,41.90
2022-10-05T12:23:58.035Z,41.98
2022-10-05T12:26:50.957Z,42.00
2022-10-05T12:29:46.488Z,41.77
2022-10-05T12:32:39.490Z,42.20
2022-10-05T12:35:47.317Z,41.99
2022-10-05T12:38:40.196Z,41.98
2022-10-05T12:41:33.024Z,41.94
2022-10-05T12:44:46.377Z,41.96
2022-10-05T12:47:42.037Z,42.16
2022-10-05T12:50:36.763Z,41.84
2022-10-05T12:53:35.542Z,42.04
2022-10-05T12:56:32.544Z,42.03
2022-10-05T12:59:32.551Z,42.04
2022-10-05T13:02:33.329Z,42.07
2022-10-05T13:05:31.218Z,42.08
2022-10-05T13:08:26.065Z,41.84
2022-10-05T13:11:19.136Z,41.92
2022-10-05T13:14:17.725Z,42.09
2022-10-05T13:17:09.165Z,41.95
2022-10-05T13:20:03.618Z,42.12
2022-10-05T13:22:58.559Z,42.12
2022-10-05T13:25:53.800Z,41.90
2022-10-05T13:28:45.655Z,41.96
2022-10-05T13:31:37.149Z,41.76
2022-10-05T13:34:31.101Z,41.83
2022-10-05T13:37:28.148Z,42.12
2022-10-05T13:40:23.396Z,42.03
2022-10-05T13:43:17.917Z,41.22
2022-10-05T13:46:09.150Z,41.00
2022-10-05T13:49:06.450Z,41.60
2022-10-05T13:52:00.329Z,41.37
2022-10-05T13:54:57.669Z,41.50
2022-10-05T13:57:53.359Z,41.20
2022-10-05T14:00:48.577Z,41.38
2022-10-05T14:03:38.550Z,41.00
2022-10-05T14:06:30.614Z,40.83
2022-10-05T14:09:30.711Z,40.75
2022-10-05T14:12:24.476Z,40.39
2022-10-05T14:15:22.209Z,41.19
2022-10-05T14:18:24.341Z,41.16
2022-10-05T14:21:23.107Z,40.68
2022-10-05T14:27:35.379Z,40.22
2022-10-05T14:30:25.696Z,40.35
2022-10-05T14:33:17.321Z,40.76
2022-10-05T14:36:12.264Z,41.15
2022-10-05T14:39:03.661Z,40.85
2022-10-05T14:41:52.233Z,40.62
2022-10-05T14:44:42.049Z,40.21
2022-10-05T14:47:34.251Z,40.43
2022-10-05T14:50:29.461Z,40.27
2022-10-05T14:53:21.203Z,40.45
2022-10-05T14:56:25.226Z,40.38
2022-10-05T14:59:23.388Z,40.23
2022-10-05T15:02:26.795Z,40.17
2022-10-05T15:05:18.141Z,40.13
2022-10-05T15:08:19.480Z,39.89
2022-10-05T15:11:09.719Z,40.17
2022-10-05T15:13:58.181Z,40.69
2022-10-05T15:16:46.985Z,41.12
2022-10-05T15:19:45.424Z,41.35
2022-10-05T15:22:42.687Z,41.62
2022-10-05T15:25:38.095Z,41.53
2022-10-05T15:28:34.046Z,41.51
2022-10-05T15:31:30.035Z,41.34
2022-10-05T15:34:22.643Z,41.58
2022-10-05T15:37:17.834Z,41.34
2022-10-05T15:40:09.055Z,41.17
2022-10-05T15:43:03.703Z,41.49
2022-10-05T15:46:01.193Z,41.51
2022-10-05T15:48:55.788Z,41.64
2022-10-05T15:51:53.416Z,41.96
2022-10-05T15:55:20.997Z,41.67
2022-10-05T15:58:47.880Z,41.41
2022-10-05T16:01:45.151Z,41.27
2022-10-05T16:04:43.025Z,41.86
2022-10-05T16:07:56.196Z,41.82
2022-10-05T16:10:47.084Z,41.80
2022-10-05T16:13:38.719Z,41.69
2022-10-05T16:16:31.209Z,42.00
2022-10-05T16:19:31.238Z,41.89
2022-10-05T16:22:23.931Z,41.92
2022-10-05T16:25:16.928Z,41.96
2022-10-05T16:28:18.546Z,41.82
2022-10-05T16:31:16.442Z,41.61
2022-10-05T16:34:10.784Z,41.72
2022-10-05T16:37:03.365Z,42.48
2022-10-05T16:39:56.045Z,42.01
2022-10-05T16:42:51.213Z,41.94
2022-10-05T16:45:52.236Z,41.68
2022-10-05T16:48:49.463Z,41.74
2022-10-05T16:51:44.543Z,41.76
2022-10-05T16:54:36.294Z,41.68
2022-10-05T16:57:26.776Z,41.67
2022-10-05T17:00:21.310Z,41.43
2022-10-05T17:03:18.263Z,41.52
2022-10-05T17:06:37.988Z,41.48
2022-10-05T17:09:50.807Z,41.52
2022-10-05T17:12:51.329Z,41.47
2022-10-05T17:15:50.668Z,41.85
2022-10-05T17:19:12.804Z,41.93
2022-10-05T17:22:03.100Z,41.68
2022-10-05T17:24:56.328Z,41.76
2022-10-05T17:27:52.979Z,41.68
2022-10-05T17:30:53.922Z,41.57
2022-10-05T17:34:30.915Z,41.45
2022-10-05T17:37:36.261Z,41.34
2022-10-05T17:40:37.678Z,41.56
2022-10-05T17:43:27.495Z,41.53
2022-10-05T17:46:45.717Z,41.86
2022-10-05T17:49:47.993Z,41.87
2022-10-05T17:53:10.381Z,41.95
2022-10-05T17:56:07.146Z,42.02
2022-10-05T17:59:00.166Z,42.05
2022-10-05T18:02:16.676Z,42.00
2022-10-05T18:05:26.049Z,42.05
2022-10-05T18:08:32.687Z,42.16
2022-10-05T18:11:37.118Z,42.38
2022-10-05T18:14:26.492Z,42.00
2022-10-05T18:17:16.266Z,42.24
2022-10-05T18:20:19.005Z,42.25
2022-10-05T18:23:35.983Z,42.14
2022-10-05T18:26:34.137Z,42.43
2022-10-05T18:29:49.821Z,42.49
2022-10-05T18:32:48.635Z,42.24
2022-10-05T18:35:46.885Z,42.18
2022-10-05T18:38:45.910Z,42.15
2022-10-05T18:41:45.564Z,42.24
2022-10-05T18:44:40.426Z,42.19
2022-10-05T18:47:32.991Z,42.19
2022-10-05T18:50:27.694Z,41.92
2022-10-05T18:53:24.421Z,42.28
2022-10-05T18:56:19.766Z,41.97
2022-10-05T18:59:24.302Z,42.08
2022-10-05T19:02:20.407Z,42.28
2022-10-05T19:05:45.773Z,42.29
2022-10-05T19:08:32.990Z,42.29
2022-10-05T19:11:27.866Z,42.49
2022-10-05T19:14:22.066Z,42.48
2022-10-05T19:17:20.993Z,42.48
2022-10-05T19:20:17.351Z,42.47
2022-10-05T19:23:23.923Z,42.41
2022-10-05T19:26:16.090Z,42.47
2022-10-05T19:29:14.314Z,42.62
2022-10-05T19:32:05.340Z,42.72
2022-10-05T19:35:05.267Z,42.45
2022-10-05T19:38:01.314Z,42.12
2022-10-05T19:40:57.763Z,42.45
2022-10-05T19:44:02.495Z,42.61
2022-10-05T19:46:57.659Z,42.50
2022-10-05T19:49:50.953Z,42.84
2022-10-05T19:52:49.006Z,43.16
2022-10-05T19:55:39.673Z,43.25
2022-10-05T19:58:29.516Z,43.54
2022-10-05T20:01:25.807Z,43.67
2022-10-05T20:04:35.291Z,43.71
2022-10-05T20:07:23.732Z,43.75
2022-10-05T20:10:29.029Z,43.80
2022-10-05T20:13:21.513Z,43.40
2022-10-05T20:16:36.766Z,43.98
2022-10-05T20:19:51.336Z,44.13
2022-10-05T20:22:46.331Z,44.14
2022-10-05T20:25:40.225Z,44.18
2022-10-05T20:28:32.200Z,43.96
2022-10-05T20:31:21.422Z,44.37
2022-10-05T20:34:09.893Z,44.05
2022-10-05T20:36:59.829Z,44.24
2022-10-05T20:39:48.265Z,44.28
2022-10-05T20:42:36.687Z,44.13
2022-10-05T20:45:25.411Z,44.33
2022-10-05T20:48:16.453Z,44.23
2022-10-05T20:51:04.952Z,44.39
2022-10-05T20:53:56.135Z,43.85
2022-10-05T20:56:45.813Z,43.92
2022-10-05T20:59:34.717Z,43.93
2022-10-05T21:02:23.217Z,43.80
2022-10-05T21:05:12.802Z,43.20
2022-10-05T21:08:01.729Z,43.82
2022-10-05T21:10:51.491Z,42.94
2022-10-05T21:13:44.590Z,43.36
2022-10-05T21:16:36.007Z,43.28
2022-10-05T21:19:24.623Z,43.35
2022-10-05T21:22:13.073Z,42.47
2022-10-05T21:25:02.362Z,42.83
2022-10-05T21:27:52.265Z,43.29
2022-10-05T21:30:40.725Z,42.58
2022-10-05T21:33:29.527Z,42.71
2022-10-05T21:36:22.477Z,42.65
2022-10-05T21:39:13.189Z,42.87
2022-10-05T21:42:01.582Z,42.99
2022-10-05T21:44:51.358Z,42.73
2022-10-05T21:47:39.771Z,43.00
2022-10-05T21:50:29.050Z,42.81
2022-10-05T21:53:18.848Z,42.73
2022-10-05T21:56:10.572Z,42.90
2022-10-05T21:58:59.252Z,42.99
2022-10-05T22:01:49.117Z,42.98
2022-10-05T22:04:37.987Z,42.92
2022-10-05T22:07:26.445Z,42.85
2022-10-05T22:10:16.304Z,43.01
2022-10-05T22:13:05.919Z,42.93
2022-10-05T22:15:55.352Z,43.06
2022-10-05T22:18:45.822Z,43.06
2022-10-05T22:21:37.943Z,43.00
2022-10-05T22:24:26.494Z,43.10
2022-10-05T22:27:15.061Z,43.32
2022-10-05T22:30:03.917Z,43.42
2022-10-05T22:32:52.359Z,42.96
2022-10-05T22:35:42.173Z,43.12
2022-10-05T22:38:31.307Z,42.94
2022-10-05T22:41:20.547Z,43.03
2022-10-05T22:44:09.074Z,43.08
2022-10-05T22:46:57.519Z,43.21
2022-10-05T22:49:46.002Z,43.20
2022-10-05T22:52:35.770Z,43.12
2022-10-05T22:55:24.556Z,43.47
2022-10-05T22:58:13.128Z,43.20
2022-10-05T23:01:03.649Z,43.20
2022-10-05T23:03:52.229Z,43.40
2022-10-05T23:06:41.060Z,43.42
2022-10-05T23:09:30.949Z,43.45
2022-10-05T23:12:19.427Z,43.06
2022-10-05T23:15:09.419Z,43.19
2022-10-05T23:17:57.878Z,43.19
2022-10-05T23:20:46.336Z,43.23
2022-10-05T23:23:37.996Z,43.19
2022-10-05T23:26:28.086Z,43.15
2022-10-05T23:29:16.526Z,43.02
2022-10-05T23:32:06.421Z,43.31
2022-10-05T23:34:56.431Z,43.28
2022-10-05T23:37:45.906Z,43.07
2022-10-05T23:40:34.469Z,43.37
2022-10-05T23:43:24.429Z,43.40
2022-10-05T23:46:13.691Z,43.41
2022-10-05T23:49:02.129Z,43.38
2022-10-05T23:51:50.636Z,43.48
2022-10-05T23:54:39.164Z,43.27
2022-10-05T23:57:27.611Z,43.44
